Terminal Aerodrome Forecast
Issued by NWS

Home | Current Version | Previous Version | Text Only | Print | Product List | Glossary On
Versions: 1 2 3 4 5 6 7 8 9 10 11 12 13 14 15 16 17 18 19 20 21 22 23 24 25 26 27 28 29 30 31 32 33 34 35
000
FTUS45 KBOU 311736
TAFBJC
TAF
KBJC 311736Z 3118/0118 VRB05KT P6SM SCT080 BKN130
     FM311900 30008KT P6SM VCTS SCT080CB BKN130
      TEMPO 3119/3122 VRB20G30KT BKN080CB
     FM010000 31010KT P6SM SCT080 SCT130
     FM010200 VRB05KT P6SM FEW120
     FM010500 26011KT P6SM SKC
     FM011700 VRB05KT P6SM FEW090 SCT120=

USA.gov is the U.S. government's official web portal to all federal, state and local government web resources and services.